createdAt,value
2023-03-02T00:01:29.303Z,61.58
2023-03-02T00:04:02.863Z,61.39
2023-03-02T00:06:34.138Z,61.58
2023-03-02T00:09:04.837Z,61.85
2023-03-02T00:11:35.780Z,61.86
2023-03-02T00:14:05.553Z,62.01
2023-03-02T00:16:35.439Z,62.18
2023-03-02T00:19:07.668Z,62.13
2023-03-02T00:21:37.294Z,62.15
2023-03-02T00:24:08.127Z,62.33
2023-03-02T00:26:38.303Z,62.02
2023-03-02T00:29:07.941Z,61.95
2023-03-02T00:31:38.064Z,61.91
2023-03-02T00:34:10.360Z,62.02
2023-03-02T00:36:40.512Z,61.76
2023-03-02T00:39:10.194Z,62.15
2023-03-02T00:41:39.896Z,62.36
2023-03-02T00:44:09.506Z,62.53
2023-03-02T00:46:39.138Z,62.55
2023-03-02T00:49:11.605Z,62.60
2023-03-02T00:51:41.220Z,62.92
2023-03-02T00:54:10.905Z,63.11
2023-03-02T00:56:40.590Z,63.45
2023-03-02T00:59:26.663Z,63.56
2023-03-02T01:02:09.730Z,63.78
2023-03-02T01:04:43.890Z,63.87
2023-03-02T01:07:15.549Z,64.20
2023-03-02T01:09:46.437Z,64.08
2023-03-02T01:12:16.057Z,64.10
2023-03-02T01:14:47.365Z,64.01
2023-03-02T01:17:18.172Z,63.94
2023-03-02T01:19:50.541Z,63.69
2023-03-02T01:22:20.650Z,63.52
2023-03-02T01:24:50.321Z,63.32
2023-03-02T01:27:19.900Z,63.31
2023-03-02T01:29:50.756Z,63.29
2023-03-02T01:32:20.398Z,63.18
2023-03-02T01:34:53.457Z,63.30
2023-03-02T01:37:23.400Z,63.15
2023-03-02T01:39:53.120Z,63.24
2023-03-02T01:42:22.800Z,62.97
2023-03-02T01:44:54.210Z,62.94
2023-03-02T01:47:26.188Z,62.87
2023-03-02T01:50:26.694Z,62.55
2023-03-02T01:53:00.525Z,62.55
2023-03-02T01:55:32.816Z,62.71
2023-03-02T01:58:03.421Z,62.66
2023-03-02T02:00:36.137Z,63.02
2023-03-02T02:03:11.488Z,63.20
2023-03-02T02:05:46.504Z,63.55
2023-03-02T02:08:16.652Z,63.83
2023-03-02T02:10:46.402Z,63.85
2023-03-02T02:13:16.072Z,64.05
2023-03-02T02:15:45.693Z,64.32
2023-03-02T02:18:15.306Z,64.65
2023-03-02T02:20:48.877Z,64.57
2023-03-02T02:23:29.064Z,64.97
2023-03-02T02:26:18.600Z,65.11
2023-03-02T02:28:57.790Z,64.88
2023-03-02T02:31:32.809Z,65.22
2023-03-02T02:34:05.847Z,65.45
2023-03-02T02:36:40.575Z,65.47
2023-03-02T02:39:19.283Z,66.06
2023-03-02T02:41:52.651Z,66.08
2023-03-02T02:44:22.528Z,66.31
2023-03-02T02:46:52.188Z,66.53
2023-03-02T02:49:30.766Z,66.86
2023-03-02T02:52:00.675Z,66.77
2023-03-02T02:54:31.751Z,66.94
2023-03-02T02:57:05.743Z,67.26
2023-03-02T02:59:39.993Z,67.28
2023-03-02T03:02:14.178Z,67.10
2023-03-02T03:04:43.903Z,67.22
2023-03-02T03:07:16.644Z,67.40
2023-03-02T03:09:46.456Z,67.53
2023-03-02T03:12:20.485Z,67.64
2023-03-02T03:14:50.691Z,67.69
2023-03-02T03:17:20.273Z,68.04
2023-03-02T03:20:06.671Z,67.79
2023-03-02T03:22:40.248Z,67.99
2023-03-02T03:25:15.623Z,67.85
2023-03-02T03:27:50.436Z,67.77
2023-03-02T03:30:22.296Z,67.71
2023-03-02T03:32:52.362Z,67.52
2023-03-02T03:35:22.342Z,67.73
2023-03-02T03:37:52.359Z,67.64
2023-03-02T03:40:22.957Z,67.74
2023-03-02T03:42:56.181Z,67.35
2023-03-02T03:45:26.056Z,67.07
2023-03-02T03:47:55.683Z,66.91
2023-03-02T03:50:25.386Z,66.81
2023-03-02T03:52:54.999Z,66.45
2023-03-02T03:55:30.199Z,66.53
2023-03-02T03:58:03.021Z,66.35
2023-03-02T04:00:33.132Z,66.28
2023-03-02T04:03:08.787Z,66.24
2023-03-02T04:05:38.600Z,66.16
2023-03-02T04:08:09.042Z,65.94
2023-03-02T04:10:39.712Z,65.75
2023-03-02T04:13:12.327Z,65.97
2023-03-02T04:15:43.957Z,65.99
2023-03-02T04:18:15.181Z,66.20
2023-03-02T04:20:44.865Z,66.30
2023-03-02T04:23:15.548Z,66.35
2023-03-02T04:25:45.592Z,66.45
2023-03-02T04:28:21.759Z,66.09
2023-03-02T04:30:52.317Z,66.17
2023-03-02T04:33:21.931Z,66.20
2023-03-02T04:35:52.289Z,66.04
2023-03-02T04:38:21.874Z,65.90
2023-03-02T04:40:51.781Z,65.68
2023-03-02T04:43:23.991Z,65.80
2023-03-02T04:45:53.656Z,65.29
2023-03-02T04:48:24.375Z,65.25
2023-03-02T04:50:54.006Z,65.03
2023-03-02T04:53:23.621Z,64.99
2023-03-02T04:55:53.258Z,64.62
2023-03-02T04:58:25.430Z,64.65
2023-03-02T05:01:02.122Z,64.56
2023-03-02T05:03:31.752Z,64.36
2023-03-02T05:06:02.284Z,64.20
2023-03-02T05:08:31.940Z,64.05
2023-03-02T05:11:01.548Z,63.94
2023-03-02T05:13:33.725Z,64.08
2023-03-02T05:16:03.735Z,64.05
2023-03-02T05:18:33.336Z,64.04
2023-03-02T05:21:02.944Z,63.79
2023-03-02T05:23:32.526Z,63.94
2023-03-02T05:26:02.506Z,63.61
2023-03-02T05:28:35.070Z,63.94
2023-03-02T05:31:05.106Z,63.73
2023-03-02T05:33:34.736Z,63.60
2023-03-02T05:36:04.475Z,63.42
2023-03-02T05:38:34.598Z,63.60
2023-03-02T05:41:04.221Z,63.30
2023-03-02T05:43:36.432Z,63.01
2023-03-02T05:46:06.187Z,62.98
2023-03-02T05:48:35.818Z,63.01
2023-03-02T05:51:05.539Z,62.69
2023-03-02T05:53:35.122Z,62.77
2023-03-02T05:56:04.716Z,62.56
2023-03-02T05:58:36.903Z,62.44
2023-03-02T06:01:12.256Z,62.45
2023-03-02T06:03:44.551Z,62.50
2023-03-02T06:06:15.130Z,62.42
2023-03-02T06:08:45.263Z,62.44
2023-03-02T06:11:14.887Z,62.42
2023-03-02T06:13:47.165Z,62.71
2023-03-02T06:16:16.936Z,62.69
2023-03-02T06:18:46.853Z,62.92
2023-03-02T06:21:17.112Z,63.09
2023-03-02T06:23:46.707Z,63.06
2023-03-02T06:26:16.719Z,63.18
2023-03-02T06:28:53.301Z,63.32
2023-03-02T06:31:23.566Z,63.48
2023-03-02T06:33:53.495Z,63.31
2023-03-02T06:36:23.321Z,63.40
2023-03-02T06:38:53.393Z,63.35
2023-03-02T06:41:23.363Z,63.02
2023-03-02T06:43:55.542Z,62.82
2023-03-02T06:46:25.141Z,62.57
2023-03-02T06:48:54.884Z,62.33
2023-03-02T06:51:24.524Z,62.01
2023-03-02T06:53:54.140Z,62.12
2023-03-02T06:56:23.848Z,61.74
2023-03-02T06:58:56.021Z,60.99
2023-03-02T07:01:25.702Z,60.72
2023-03-02T07:03:55.361Z,59.94
2023-03-02T07:06:24.978Z,58.68
2023-03-02T07:08:54.610Z,57.38
2023-03-02T07:11:24.386Z,56.32
2023-03-02T07:13:56.841Z,55.25
2023-03-02T07:16:26.481Z,53.92
2023-03-02T07:18:56.166Z,52.92
2023-03-02T07:21:25.753Z,52.08
2023-03-02T07:23:55.363Z,50.23
2023-03-02T07:26:24.924Z,48.42
2023-03-02T07:28:59.383Z,48.09
2023-03-02T07:31:29.160Z,48.06
2023-03-02T07:33:58.817Z,47.29
2023-03-02T07:36:28.987Z,45.71
2023-03-02T07:38:58.560Z,44.68
2023-03-02T07:41:28.123Z,43.45
2023-03-02T07:44:01.111Z,42.12
2023-03-02T07:46:30.859Z,41.38
2023-03-02T07:49:01.100Z,40.08
2023-03-02T07:51:30.905Z,39.01
2023-03-02T07:54:02.874Z,37.57
2023-03-02T07:56:32.569Z,36.72
2023-03-02T07:59:04.810Z,35.67
2023-03-02T08:01:34.786Z,35.08
2023-03-02T08:04:04.602Z,34.58
2023-03-02T08:06:34.166Z,33.90
2023-03-02T08:09:04.881Z,32.97
2023-03-02T08:11:35.182Z,31.76
2023-03-02T08:14:07.577Z,30.97
2023-03-02T08:16:37.448Z,30.65
2023-03-02T08:19:07.134Z,30.05
2023-03-02T08:21:36.762Z,29.45
2023-03-02T08:24:06.884Z,27.87
2023-03-02T08:26:36.450Z,28.16
2023-03-02T08:29:09.372Z,27.89
2023-03-02T08:31:39.186Z,27.88
2023-03-02T08:34:08.791Z,27.40
2023-03-02T08:36:38.386Z,26.25
2023-03-02T08:39:08.006Z,25.96
2023-03-02T08:41:37.611Z,25.78
2023-03-02T08:44:10.052Z,25.14
2023-03-02T08:46:39.638Z,25.13
2023-03-02T08:49:09.275Z,25.29
2023-03-02T08:51:39.002Z,25.34
2023-03-02T08:54:08.678Z,25.74
2023-03-02T08:56:40.263Z,25.80
2023-03-02T08:59:15.085Z,26.00
2023-03-02T09:01:44.898Z,25.72
2023-03-02T09:04:14.599Z,25.50
2023-03-02T09:06:47.454Z,26.01
2023-03-02T09:09:17.858Z,26.15
2023-03-02T09:11:47.831Z,26.22
2023-03-02T09:14:20.021Z,25.29
2023-03-02T09:16:49.677Z,24.88
2023-03-02T09:19:19.242Z,25.60
2023-03-02T09:21:49.879Z,25.45
2023-03-02T09:24:19.487Z,25.34
2023-03-02T09:26:49.081Z,25.22
2023-03-02T09:29:21.236Z,24.83
2023-03-02T09:31:50.867Z,25.29
2023-03-02T09:34:20.546Z,24.79
2023-03-02T09:36:50.242Z,24.58
2023-03-02T09:39:19.785Z,23.82
2023-03-02T09:42:14.602Z,23.63
2023-03-02T09:45:18.963Z,23.61
2023-03-02T09:47:55.330Z,23.55
2023-03-02T09:50:30.447Z,23.89
2023-03-02T09:53:12.258Z,24.38
2023-03-02T09:55:41.908Z,23.70
2023-03-02T09:58:17.853Z,23.76
2023-03-02T10:00:50.639Z,23.63
2023-03-02T10:03:22.594Z,23.36
2023-03-02T10:05:54.080Z,23.28
2023-03-02T10:08:25.988Z,23.22
2023-03-02T10:11:01.568Z,23.55
2023-03-02T10:13:32.520Z,23.45
2023-03-02T10:16:18.251Z,23.30
2023-03-02T10:18:50.229Z,23.78
2023-03-02T10:21:24.972Z,23.91
2023-03-02T10:23:59.096Z,25.06
2023-03-02T10:26:34.657Z,25.28
2023-03-02T10:29:14.477Z,26.04
2023-03-02T10:31:49.706Z,26.96
2023-03-02T10:34:19.555Z,27.44
2023-03-02T10:36:49.803Z,28.07
2023-03-02T10:39:20.484Z,28.77
2023-03-02T10:41:53.756Z,29.39
2023-03-02T10:44:26.027Z,29.98
2023-03-02T10:46:59.257Z,30.28
2023-03-02T10:49:31.217Z,30.71
2023-03-02T10:52:03.383Z,31.42
2023-03-02T10:54:34.063Z,31.97
2023-03-02T10:57:05.953Z,32.33
2023-03-02T10:59:47.054Z,32.73
2023-03-02T11:02:23.496Z,33.10
2023-03-02T11:04:57.992Z,33.66
2023-03-02T11:07:29.006Z,33.76
2023-03-02T11:10:03.183Z,34.14
2023-03-02T11:12:32.745Z,34.31
2023-03-02T11:15:19.749Z,34.58
2023-03-02T11:17:54.509Z,34.74
2023-03-02T11:20:28.378Z,34.85
2023-03-02T11:23:06.763Z,35.27
2023-03-02T11:25:40.190Z,35.69
2023-03-02T11:28:17.162Z,35.68
2023-03-02T11:30:50.310Z,35.86
2023-03-02T11:33:25.060Z,36.09
2023-03-02T11:35:58.266Z,36.12
2023-03-02T11:38:30.746Z,36.11
2023-03-02T11:41:03.160Z,36.27
2023-03-02T11:43:33.116Z,36.20
2023-03-02T11:46:14.020Z,36.42
2023-03-02T11:48:54.569Z,36.39
2023-03-02T11:51:25.777Z,36.50
2023-03-02T11:53:59.336Z,36.58
2023-03-02T11:56:31.361Z,36.81
2023-03-02T11:59:04.722Z,36.63
2023-03-02T12:01:38.018Z,36.73
2023-03-02T12:04:27.314Z,37.03
2023-03-02T12:06:57.230Z,37.22
2023-03-02T12:09:37.175Z,37.37
2023-03-02T12:12:35.381Z,37.10
2023-03-02T12:15:05.586Z,36.98
2023-03-02T12:17:36.923Z,37.02
2023-03-02T12:20:27.060Z,37.08
2023-03-02T12:22:57.318Z,37.18
2023-03-02T12:25:32.051Z,36.91
2023-03-02T12:28:01.632Z,37.22
2023-03-02T12:30:31.715Z,37.14
2023-03-02T12:33:04.714Z,36.97
2023-03-02T12:35:37.808Z,36.88
2023-03-02T12:38:09.196Z,36.67
2023-03-02T12:40:48.200Z,36.60
2023-03-02T12:43:30.795Z,36.77
2023-03-02T12:46:28.601Z,36.70
2023-03-02T12:49:17.547Z,36.62
2023-03-02T12:51:54.191Z,36.79
2023-03-02T12:54:25.587Z,36.73
2023-03-02T12:57:08.792Z,36.57
2023-03-02T12:59:39.378Z,36.42
2023-03-02T13:02:17.211Z,36.61
2023-03-02T13:04:47.251Z,36.54
2023-03-02T13:07:22.614Z,36.16
2023-03-02T13:09:57.231Z,36.26
2023-03-02T13:12:29.588Z,36.01
2023-03-02T13:15:01.238Z,35.77
2023-03-02T13:17:32.841Z,35.87
2023-03-02T13:20:03.592Z,35.59
2023-03-02T13:22:35.897Z,35.56
2023-03-02T13:25:08.301Z,35.17
2023-03-02T13:27:37.908Z,35.36
2023-03-02T13:30:24.913Z,35.28
2023-03-02T13:32:54.692Z,35.03
2023-03-02T13:35:26.727Z,34.99
2023-03-02T13:38:04.606Z,35.21
2023-03-02T13:40:40.031Z,35.19
2023-03-02T13:43:23.735Z,34.98
2023-03-02T13:45:57.793Z,35.02
2023-03-02T13:48:27.778Z,35.19
2023-03-02T13:50:59.416Z,35.12
2023-03-02T13:53:38.254Z,35.23
2023-03-02T13:56:08.566Z,35.32
2023-03-02T13:58:41.040Z,35.29
2023-03-02T14:01:10.819Z,35.23
2023-03-02T14:03:40.567Z,35.48
2023-03-02T14:06:11.142Z,35.33
2023-03-02T14:08:43.409Z,35.38
2023-03-02T14:11:13.814Z,35.36
2023-03-02T14:13:45.222Z,35.12
2023-03-02T14:16:15.503Z,35.20
2023-03-02T14:18:47.560Z,35.26
2023-03-02T14:21:19.019Z,35.33
2023-03-02T14:23:52.655Z,35.09
2023-03-02T14:26:30.640Z,34.94
2023-03-02T14:29:05.692Z,34.60
2023-03-02T14:31:36.153Z,34.42
2023-03-02T14:34:05.974Z,34.54
2023-03-02T14:36:37.065Z,34.52
2023-03-02T14:39:14.076Z,34.53
2023-03-02T14:41:52.932Z,34.78
2023-03-02T14:44:24.079Z,34.47
2023-03-02T14:46:53.682Z,34.75
2023-03-02T14:49:23.368Z,34.76
2023-03-02T14:51:58.785Z,34.86
2023-03-02T14:54:34.362Z,34.74
2023-03-02T14:57:06.267Z,34.61
2023-03-02T14:59:35.851Z,34.53
2023-03-02T15:02:15.859Z,34.39
2023-03-02T15:04:56.599Z,34.42
2023-03-02T15:07:27.308Z,34.57
2023-03-02T15:10:00.366Z,34.56
2023-03-02T15:12:29.991Z,34.33
2023-03-02T15:14:59.659Z,34.57
2023-03-02T15:17:29.522Z,34.64
2023-03-02T15:19:59.141Z,34.54
2023-03-02T15:22:28.731Z,34.61
2023-03-02T15:25:00.954Z,34.60
2023-03-02T15:27:30.525Z,34.62
2023-03-02T15:30:00.107Z,34.57
2023-03-02T15:32:29.770Z,35.08
2023-03-02T15:34:59.394Z,34.99
2023-03-02T15:37:28.979Z,35.32
2023-03-02T15:40:01.257Z,35.18
2023-03-02T15:42:30.872Z,35.39
2023-03-02T15:45:00.506Z,35.44
2023-03-02T15:47:30.092Z,35.42
2023-03-02T15:49:59.704Z,35.57
2023-03-02T15:52:29.351Z,35.38
2023-03-02T15:55:01.564Z,35.58
2023-03-02T15:57:31.182Z,35.79
2023-03-02T16:00:01.207Z,35.90
2023-03-02T16:02:30.967Z,35.95
2023-03-02T16:05:00.576Z,36.31
2023-03-02T16:07:30.267Z,36.42
2023-03-02T16:10:02.487Z,36.82
2023-03-02T16:12:32.056Z,37.11
2023-03-02T16:15:01.720Z,37.48
2023-03-02T16:17:31.404Z,37.62
2023-03-02T16:20:01.057Z,37.88
2023-03-02T16:22:30.693Z,38.23
2023-03-02T16:25:02.881Z,38.60
2023-03-02T16:27:33.080Z,39.07
2023-03-02T16:30:02.640Z,39.27
2023-03-02T16:32:34.074Z,39.23
2023-03-02T16:35:03.672Z,39.40
2023-03-02T16:37:33.323Z,39.54
2023-03-02T16:40:05.502Z,39.56
2023-03-02T16:42:35.138Z,39.91
2023-03-02T16:45:04.967Z,39.95
2023-03-02T16:47:34.586Z,40.11
2023-03-02T16:50:05.189Z,40.37
2023-03-02T16:52:34.951Z,40.61
2023-03-02T16:55:10.621Z,40.58
2023-03-02T16:57:40.269Z,40.66
2023-03-02T17:00:13.980Z,40.89
2023-03-02T17:02:43.553Z,40.97
2023-03-02T17:05:14.233Z,41.20
2023-03-02T17:07:43.829Z,41.03
2023-03-02T17:10:19.673Z,41.55
2023-03-02T17:12:49.280Z,41.61
2023-03-02T17:15:19.144Z,41.85
2023-03-02T17:17:48.728Z,42.44
2023-03-02T17:20:18.869Z,42.87
2023-03-02T17:22:48.512Z,43.11
2023-03-02T17:25:21.047Z,43.39
2023-03-02T17:27:50.711Z,43.69
2023-03-02T17:30:20.950Z,44.09
2023-03-02T17:32:50.578Z,44.50
2023-03-02T17:35:20.164Z,44.62
2023-03-02T17:37:49.808Z,45.10
2023-03-02T17:40:22.325Z,45.48
2023-03-02T17:42:54.537Z,45.67
2023-03-02T17:45:28.072Z,45.69
2023-03-02T17:48:01.371Z,46.49
2023-03-02T17:50:31.873Z,47.02
2023-03-02T17:53:02.278Z,47.79
2023-03-02T17:55:34.583Z,48.23
2023-03-02T17:58:04.272Z,49.27
2023-03-02T18:00:34.008Z,49.61
2023-03-02T18:03:03.688Z,50.26
2023-03-02T18:05:33.371Z,51.01
2023-03-02T18:08:02.968Z,51.27
2023-03-02T18:10:35.162Z,52.34
2023-03-02T18:13:04.748Z,53.16
2023-03-02T18:15:34.551Z,53.29
2023-03-02T18:18:04.285Z,54.25
2023-03-02T18:20:34.376Z,54.86
2023-03-02T18:23:04.342Z,55.66
2023-03-02T18:25:36.686Z,55.64
2023-03-02T18:28:06.327Z,56.46
2023-03-02T18:30:36.000Z,57.17
2023-03-02T18:33:05.653Z,57.54
2023-03-02T18:35:35.297Z,58.71
2023-03-02T18:38:05.090Z,58.56
2023-03-02T18:40:37.442Z,59.10
2023-03-02T18:43:07.076Z,59.26
2023-03-02T18:45:36.962Z,59.31
2023-03-02T18:48:07.400Z,59.99
2023-03-02T18:50:37.111Z,60.33
2023-03-02T18:53:08.687Z,60.66
2023-03-02T18:55:41.030Z,60.92
2023-03-02T18:58:11.063Z,60.97
2023-03-02T19:00:41.358Z,61.21
2023-03-02T19:03:11.027Z,61.12
2023-03-02T19:05:40.843Z,61.81
2023-03-02T19:08:10.805Z,62.10
2023-03-02T19:10:43.294Z,62.33
2023-03-02T19:13:13.336Z,63.20
2023-03-02T19:15:43.308Z,63.33
2023-03-02T19:18:16.218Z,63.90
2023-03-02T19:20:46.133Z,64.11
2023-03-02T19:23:16.114Z,64.66
2023-03-02T19:25:48.529Z,64.94
2023-03-02T19:28:18.147Z,64.36
2023-03-02T19:30:47.720Z,64.59
2023-03-02T19:33:17.357Z,64.63
2023-03-02T19:35:47.263Z,65.14
2023-03-02T19:38:18.312Z,65.40
2023-03-02T19:40:50.534Z,65.75
2023-03-02T19:43:20.397Z,66.27
2023-03-02T19:45:50.039Z,65.95
2023-03-02T19:48:19.735Z,66.11
2023-03-02T19:50:49.559Z,66.54
2023-03-02T19:53:19.335Z,66.82
2023-03-02T19:55:52.699Z,67.06
2023-03-02T19:58:23.713Z,67.46
2023-03-02T20:00:53.404Z,67.33
2023-03-02T20:03:23.239Z,68.21
2023-03-02T20:05:53.351Z,68.18
2023-03-02T20:08:24.054Z,68.34
2023-03-02T20:10:56.334Z,68.75
2023-03-02T20:13:27.254Z,68.86
2023-03-02T20:15:56.944Z,69.22
2023-03-02T20:18:26.541Z,69.69
2023-03-02T20:20:56.230Z,69.54
2023-03-02T20:23:25.822Z,69.18
2023-03-02T20:25:58.417Z,69.41
2023-03-02T20:28:28.222Z,69.49
2023-03-02T20:30:59.373Z,69.42
2023-03-02T20:33:32.312Z,69.92
2023-03-02T20:36:03.179Z,70.07
2023-03-02T20:38:35.036Z,70.04
2023-03-02T20:41:07.972Z,70.08
2023-03-02T20:43:37.691Z,70.23
2023-03-02T20:46:08.390Z,70.67
2023-03-02T20:48:38.623Z,70.28
2023-03-02T20:51:08.514Z,70.59
2023-03-02T20:53:38.117Z,71.17
2023-03-02T20:56:11.358Z,70.90
2023-03-02T20:58:41.518Z,71.08
2023-03-02T21:01:11.260Z,71.10
2023-03-02T21:03:41.154Z,71.35
2023-03-02T21:06:11.043Z,71.45
2023-03-02T21:08:41.523Z,71.90
2023-03-02T21:11:16.322Z,72.32
2023-03-02T21:13:48.115Z,72.51
2023-03-02T21:16:23.009Z,73.13
2023-03-02T21:18:52.639Z,73.21
2023-03-02T21:21:32.517Z,73.26
2023-03-02T21:24:05.477Z,73.03
2023-03-02T21:26:37.805Z,72.94
2023-03-02T21:29:09.475Z,73.29
2023-03-02T21:31:39.429Z,73.29
2023-03-02T21:34:09.081Z,73.27
2023-03-02T21:36:39.157Z,73.59
2023-03-02T21:39:09.729Z,73.71
2023-03-02T21:41:42.137Z,73.84
2023-03-02T21:44:12.531Z,74.20
2023-03-02T21:46:42.283Z,74.17
2023-03-02T21:49:12.093Z,73.71
2023-03-02T21:51:41.771Z,74.06
2023-03-02T21:54:12.012Z,74.11
2023-03-02T21:56:44.563Z,74.21
2023-03-02T21:59:15.066Z,74.16
2023-03-02T22:01:44.812Z,74.45
2023-03-02T22:04:14.462Z,74.55
2023-03-02T22:06:44.104Z,74.95
2023-03-02T22:09:14.469Z,75.00
2023-03-02T22:11:47.636Z,75.32
2023-03-02T22:14:19.515Z,75.54
2023-03-02T22:16:49.998Z,75.67
2023-03-02T22:19:28.110Z,75.86
2023-03-02T22:21:59.957Z,75.88
2023-03-02T22:24:31.443Z,76.16
2023-03-02T22:27:13.408Z,76.74
2023-03-02T22:29:44.168Z,76.41
2023-03-02T22:32:18.235Z,76.99
2023-03-02T22:34:48.948Z,76.79
2023-03-02T22:37:20.444Z,76.85
2023-03-02T22:39:51.096Z,76.94
2023-03-02T22:42:25.266Z,76.89
2023-03-02T22:45:02.727Z,77.17
2023-03-02T22:47:32.337Z,76.92
2023-03-02T22:50:09.184Z,77.08
2023-03-02T22:52:43.865Z,77.19
2023-03-02T22:55:32.742Z,77.42
2023-03-02T22:58:20.845Z,77.53
2023-03-02T23:00:51.111Z,77.65
2023-03-02T23:03:21.856Z,77.96
2023-03-02T23:05:53.468Z,77.88
2023-03-02T23:08:25.807Z,78.36
2023-03-02T23:10:57.682Z,78.51
2023-03-02T23:13:41.783Z,79.10
2023-03-02T23:16:17.565Z,78.95
2023-03-02T23:18:47.969Z,79.02
2023-03-02T23:21:20.266Z,79.08
2023-03-02T23:23:50.225Z,78.91
2023-03-02T23:26:20.417Z,79.13
2023-03-02T23:28:53.827Z,79.18
2023-03-02T23:31:23.897Z,79.33
2023-03-02T23:33:53.518Z,79.33
2023-03-02T23:36:23.388Z,79.46
2023-03-02T23:38:53.275Z,79.59
2023-03-02T23:41:22.980Z,80.02
2023-03-02T23:43:55.202Z,79.97
2023-03-02T23:46:24.855Z,80.12
2023-03-02T23:48:56.147Z,80.15
2023-03-02T23:51:26.261Z,80.38
2023-03-02T23:53:56.310Z,80.56
2023-03-02T23:56:26.106Z,80.96
2023-03-02T23:58:58.518Z,81.03
